createdAt,value
2022-08-30T00:02:43.834Z,17.60
2022-08-30T00:07:47.177Z,17.58
2022-08-30T00:12:52.075Z,17.62
2022-08-30T00:17:58.208Z,17.63
2022-08-30T00:23:04.259Z,17.63
2022-08-30T00:28:09.819Z,17.61
2022-08-30T00:33:14.004Z,17.62
2022-08-30T00:38:17.030Z,17.64
2022-08-30T00:43:29.089Z,17.67
2022-08-30T00:48:32.337Z,17.69
2022-08-30T00:53:38.421Z,17.68
2022-08-30T00:58:48.132Z,17.64
2022-08-30T01:03:51.287Z,17.62
2022-08-30T01:08:54.128Z,17.61
2022-08-30T01:13:59.037Z,17.60
2022-08-30T01:19:02.580Z,17.58
2022-08-30T01:24:10.109Z,17.60
2022-08-30T01:29:18.567Z,17.58
2022-08-30T01:34:21.617Z,17.56
2022-08-30T01:39:26.026Z,17.55
2022-08-30T01:44:28.844Z,17.55
2022-08-30T01:49:31.782Z,17.57
2022-08-30T01:54:39.581Z,17.55
2022-08-30T01:59:47.531Z,17.51
2022-08-30T02:04:51.759Z,17.50
2022-08-30T02:09:56.834Z,17.51
2022-08-30T02:14:59.651Z,17.48
2022-08-30T02:20:02.764Z,17.49
2022-08-30T02:25:11.219Z,17.49
2022-08-30T02:30:23.957Z,17.49
2022-08-30T02:35:27.388Z,17.48
2022-08-30T02:40:31.991Z,17.46
2022-08-30T02:45:35.106Z,17.44
2022-08-30T02:50:41.503Z,17.39
2022-08-30T02:55:46.600Z,17.36
2022-08-30T03:00:49.516Z,17.34
2022-08-30T03:05:55.369Z,17.35
2022-08-30T03:11:00.129Z,17.34
2022-08-30T03:16:03.310Z,17.31
2022-08-30T03:21:11.614Z,17.34
2022-08-30T03:26:15.978Z,17.37
2022-08-30T03:31:18.813Z,17.30
2022-08-30T03:36:22.116Z,17.25
2022-08-30T03:41:26.286Z,17.24
2022-08-30T03:46:31.831Z,17.25
2022-08-30T03:51:36.574Z,17.27
2022-08-30T03:56:41.004Z,17.28
2022-08-30T04:01:45.733Z,17.25
2022-08-30T04:06:48.782Z,17.24
2022-08-30T04:11:52.931Z,17.31
2022-08-30T04:16:55.731Z,17.32
2022-08-30T04:21:58.574Z,17.30
2022-08-30T04:27:02.949Z,17.26
2022-08-30T04:32:06.030Z,17.21
2022-08-30T04:37:09.902Z,17.23
2022-08-30T04:42:14.268Z,17.27
2022-08-30T04:47:18.301Z,17.31
2022-08-30T04:52:21.354Z,17.36
2022-08-30T04:57:26.560Z,17.37
2022-08-30T05:02:29.462Z,17.29
2022-08-30T05:07:33.432Z,17.31
2022-08-30T05:12:37.619Z,17.34
2022-08-30T05:17:41.228Z,17.40
2022-08-30T05:22:49.951Z,17.39
2022-08-30T05:27:58.195Z,17.42
2022-08-30T05:33:00.991Z,17.44
2022-08-30T05:38:03.750Z,17.45
2022-08-30T05:43:08.178Z,17.43
2022-08-30T05:48:13.113Z,17.43
2022-08-30T05:53:15.967Z,17.42
2022-08-30T05:58:20.108Z,17.42
2022-08-30T06:03:23.221Z,17.39
2022-08-30T06:08:26.081Z,17.45
2022-08-30T06:13:30.242Z,17.50
2022-08-30T06:18:33.065Z,17.54
2022-08-30T06:23:36.257Z,17.59
2022-08-30T06:28:40.536Z,17.64
2022-08-30T06:33:44.726Z,17.73
2022-08-30T06:38:52.044Z,17.81
2022-08-30T06:44:03.893Z,17.86
2022-08-30T06:49:08.564Z,17.86
2022-08-30T06:54:13.093Z,17.87
2022-08-30T06:59:17.901Z,17.88
2022-08-30T07:04:20.708Z,18.00
2022-08-30T07:09:23.609Z,18.20
2022-08-30T07:14:27.786Z,18.39
2022-08-30T07:19:30.605Z,18.68
2022-08-30T07:24:33.401Z,18.86
2022-08-30T07:29:37.583Z,18.99
2022-08-30T07:34:40.392Z,19.11
2022-08-30T07:39:47.572Z,19.25
2022-08-30T07:44:56.515Z,19.38
2022-08-30T07:50:00.957Z,19.50
2022-08-30T07:55:05.289Z,19.67
2022-08-30T08:00:11.338Z,19.85
2022-08-30T08:05:17.639Z,19.88
2022-08-30T08:10:21.787Z,19.91
2022-08-30T08:15:26.484Z,19.98
2022-08-30T08:20:29.357Z,19.93
2022-08-30T08:25:32.427Z,19.89
2022-08-30T08:30:38.848Z,20.00
2022-08-30T08:35:41.679Z,20.03
2022-08-30T08:40:55.481Z,20.06
2022-08-30T08:46:05.175Z,20.19
2022-08-30T08:51:28.852Z,20.31
2022-08-30T08:56:32.209Z,20.41
2022-08-30T09:01:38.500Z,20.71
2022-08-30T09:06:53.399Z,21.02
2022-08-30T09:11:56.440Z,21.10
2022-08-30T09:17:03.525Z,21.18
2022-08-30T09:22:15.147Z,21.25
2022-08-30T09:27:22.124Z,21.33
2022-08-30T09:32:31.922Z,21.33
2022-08-30T09:37:38.956Z,21.41
2022-08-30T09:42:42.627Z,21.17
2022-08-30T09:47:46.873Z,21.00
2022-08-30T09:53:15.815Z,21.00
2022-08-30T09:58:42.687Z,21.14
2022-08-30T10:03:55.855Z,21.41
2022-08-30T10:09:07.674Z,21.38
2022-08-30T10:14:40.157Z,21.38
2022-08-30T10:19:59.204Z,21.55
2022-08-30T10:25:06.515Z,21.67
2022-08-30T10:30:14.332Z,21.70
2022-08-30T10:35:21.771Z,21.59
2022-08-30T10:40:51.070Z,21.50
2022-08-30T10:45:59.024Z,21.68
2022-08-30T10:51:10.819Z,21.74
2022-08-30T10:56:20.517Z,21.53
2022-08-30T11:01:37.767Z,21.65
2022-08-30T11:06:59.302Z,22.02
2022-08-30T11:12:22.646Z,22.00
2022-08-30T11:17:32.238Z,21.69
2022-08-30T11:22:39.370Z,21.72
2022-08-30T11:27:49.407Z,21.86
2022-08-30T11:33:03.316Z,21.89
2022-08-30T11:38:21.851Z,21.85
2022-08-30T11:43:51.580Z,22.00
2022-08-30T11:49:01.976Z,22.10
2022-08-30T11:54:17.262Z,21.83
2022-08-30T11:59:30.860Z,21.87
2022-08-30T12:04:45.394Z,21.97
2022-08-30T12:10:06.262Z,22.11
2022-08-30T12:15:48.020Z,22.10
2022-08-30T12:20:51.001Z,22.12
2022-08-30T12:26:11.123Z,22.08
2022-08-30T12:31:17.562Z,22.04
2022-08-30T12:36:34.926Z,22.18
2022-08-30T12:41:43.868Z,22.26
2022-08-30T12:46:49.417Z,22.11
2022-08-30T12:51:52.299Z,22.20
2022-08-30T12:57:18.963Z,22.13
2022-08-30T13:02:26.890Z,22.11
2022-08-30T13:07:33.402Z,22.12
2022-08-30T13:12:38.436Z,21.96
2022-08-30T13:17:41.260Z,21.80
2022-08-30T13:23:03.182Z,21.65
2022-08-30T13:28:08.487Z,21.36
2022-08-30T13:33:11.646Z,21.28
2022-08-30T13:43:18.520Z,21.15
2022-08-30T13:48:24.876Z,20.99
2022-08-30T13:58:52.228Z,20.80
2022-08-30T14:09:19.048Z,20.68
2022-08-30T14:14:41.420Z,20.69
2022-08-30T14:19:46.231Z,20.59
2022-08-30T14:24:54.147Z,20.55
2022-08-30T14:29:59.923Z,20.58
2022-08-30T14:35:02.753Z,20.54
2022-08-30T14:40:07.734Z,20.59
2022-08-30T14:45:13.181Z,20.71
2022-08-30T14:50:16.391Z,20.79
2022-08-30T14:55:19.480Z,20.84
2022-08-30T15:00:24.055Z,20.83
2022-08-30T15:05:28.618Z,20.73
2022-08-30T15:10:31.482Z,20.67
2022-08-30T15:15:36.632Z,20.63
2022-08-30T15:20:47.435Z,20.52
2022-08-30T15:25:50.259Z,20.49
2022-08-30T15:30:55.506Z,20.51
2022-08-30T15:36:01.486Z,20.71
2022-08-30T15:41:09.180Z,20.69
2022-08-30T15:46:22.907Z,20.64
2022-08-30T15:51:26.347Z,20.75
2022-08-30T15:56:30.685Z,20.77
2022-08-30T16:01:41.506Z,20.77
2022-08-30T16:06:46.532Z,20.70
2022-08-30T16:11:49.555Z,20.61
2022-08-30T16:16:54.329Z,20.49
2022-08-30T16:21:57.575Z,20.41
2022-08-30T16:27:00.441Z,20.30
2022-08-30T16:32:05.030Z,20.17
2022-08-30T16:37:07.846Z,19.93
2022-08-30T16:42:11.325Z,19.80
2022-08-30T16:47:15.572Z,19.69
2022-08-30T16:52:18.586Z,19.54
2022-08-30T16:57:22.225Z,19.43
2022-08-30T17:02:26.574Z,19.37
2022-08-30T17:07:30.659Z,19.28
2022-08-30T17:12:33.614Z,19.19
2022-08-30T17:17:38.128Z,19.08
2022-08-30T17:22:46.175Z,18.95
2022-08-30T17:27:49.230Z,18.88
2022-08-30T17:32:54.573Z,18.75
2022-08-30T17:37:58.368Z,18.63
2022-08-30T17:43:01.365Z,18.52
2022-08-30T17:48:07.049Z,18.40
2022-08-30T17:53:09.884Z,18.29
2022-08-30T17:58:12.884Z,18.20
2022-08-30T18:03:17.445Z,18.13
2022-08-30T18:08:20.306Z,18.05
2022-08-30T18:13:23.531Z,17.98
2022-08-30T18:18:28.547Z,17.91
2022-08-30T18:23:31.952Z,17.79
2022-08-30T18:28:35.347Z,17.71
2022-08-30T18:33:39.643Z,17.61
2022-08-30T18:38:42.862Z,17.51
2022-08-30T18:43:46.085Z,17.41
2022-08-30T18:48:51.214Z,17.31
2022-08-30T18:53:56.154Z,17.22
2022-08-30T18:58:59.032Z,17.15
2022-08-30T19:04:04.816Z,17.03
2022-08-30T19:09:08.970Z,16.86
2022-08-30T19:14:12.378Z,16.69
2022-08-30T19:19:18.772Z,16.58
2022-08-30T19:24:21.735Z,16.47
2022-08-30T19:29:24.578Z,16.38
2022-08-30T19:34:30.516Z,16.30
2022-08-30T19:39:33.368Z,16.24
2022-08-30T19:44:36.698Z,16.13
2022-08-30T19:49:41.094Z,16.04
2022-08-30T19:54:43.933Z,15.92
2022-08-30T19:59:46.784Z,15.89
2022-08-30T20:04:51.487Z,15.84
2022-08-30T20:09:54.446Z,15.83
2022-08-30T20:14:57.270Z,15.84
2022-08-30T20:20:04.408Z,15.81
2022-08-30T20:25:10.824Z,15.73
2022-08-30T20:30:15.278Z,15.67
2022-08-30T20:35:19.892Z,15.63
2022-08-30T20:40:22.962Z,15.51
2022-08-30T20:45:25.830Z,15.39
2022-08-30T20:50:35.211Z,15.35
2022-08-30T20:55:41.565Z,15.30
2022-08-30T21:00:45.662Z,15.26
2022-08-30T21:05:51.148Z,15.22
2022-08-30T21:10:54.565Z,15.11
2022-08-30T21:16:03.633Z,15.04
2022-08-30T21:21:12.610Z,15.03
2022-08-30T21:26:18.078Z,15.00
2022-08-30T21:31:22.629Z,14.95
2022-08-30T21:36:46.549Z,14.91
2022-08-30T21:41:51.169Z,14.85
2022-08-30T21:46:56.200Z,14.80
2022-08-30T21:52:00.512Z,14.75
2022-08-30T21:57:05.247Z,14.68
2022-08-30T22:02:09.148Z,14.61
2022-08-30T22:07:13.468Z,14.51
2022-08-30T22:12:16.385Z,14.42
2022-08-30T22:17:19.281Z,14.35
2022-08-30T22:22:23.409Z,14.21
2022-08-30T22:27:26.232Z,14.07
2022-08-30T22:32:29.083Z,13.98
2022-08-30T22:37:34.022Z,13.87
2022-08-30T22:42:37.213Z,13.75
2022-08-30T22:47:40.065Z,13.62
2022-08-30T22:52:44.324Z,13.51
2022-08-30T22:57:47.126Z,13.42
2022-08-30T23:02:52.597Z,13.31
2022-08-30T23:07:56.919Z,13.22
2022-08-30T23:13:00.534Z,13.15
2022-08-30T23:18:03.479Z,13.07
2022-08-30T23:23:06.530Z,12.97
2022-08-30T23:28:26.639Z,12.91
2022-08-30T23:33:47.217Z,12.86
2022-08-30T23:39:08.537Z,12.76
2022-08-30T23:44:29.009Z,12.67
2022-08-30T23:49:49.321Z,12.64
2022-08-30T23:55:11.036Z,12.57
